sensor_id;sensor_type;location;lat;lon;timestamp;P1;durP1;ratioP1;P2;durP2;ratioP2
32790;SDS011;19143;59.322;14.502;2023-08-06T00:01:46;2.57;;;2.37;;
32790;SDS011;19143;59.322;14.502;2023-08-06T00:04:13;9.80;;;2.47;;
32790;SDS011;19143;59.322;14.502;2023-08-06T00:06:40;4.40;;;2.43;;
32790;SDS011;19143;59.322;14.502;2023-08-06T00:09:06;4.80;;;2.50;;
32790;SDS011;19143;59.322;14.502;2023-08-06T00:11:34;2.20;;;2.07;;
32790;SDS011;19143;59.322;14.502;2023-08-06T00:14:01;3.57;;;2.10;;
32790;SDS011;19143;59.322;14.502;2023-08-06T00:16:28;2.50;;;2.30;;
32790;SDS011;19143;59.322;14.502;2023-08-06T00:18:54;2.03;;;1.93;;
32790;SDS011;19143;59.322;14.502;2023-08-06T00:21:21;8.40;;;2.33;;
32790;SDS011;19143;59.322;14.502;2023-08-06T00:23:47;2.63;;;2.43;;
32790;SDS011;19143;59.322;14.502;2023-08-06T00:26:14;6.37;;;3.00;;
32790;SDS011;19143;59.322;14.502;2023-08-06T00:28:42;5.43;;;3.90;;
32790;SDS011;19143;59.322;14.502;2023-08-06T00:31:09;4.53;;;3.80;;
32790;SDS011;19143;59.322;14.502;2023-08-06T00:33:36;4.97;;;3.40;;
32790;SDS011;19143;59.322;14.502;2023-08-06T00:36:02;8.27;;;2.60;;
32790;SDS011;19143;59.322;14.502;2023-08-06T00:38:29;2.60;;;2.27;;
32790;SDS011;19143;59.322;14.502;2023-08-06T00:41:02;4.43;;;2.53;;
32790;SDS011;19143;59.322;14.502;2023-08-06T00:43:29;4.77;;;2.70;;
32790;SDS011;19143;59.322;14.502;2023-08-06T00:45:57;6.20;;;2.70;;
32790;SDS011;19143;59.322;14.502;2023-08-06T00:48:23;3.00;;;2.50;;
32790;SDS011;19143;59.322;14.502;2023-08-06T00:50:50;3.30;;;2.13;;
32790;SDS011;19143;59.322;14.502;2023-08-06T00:53:17;2.57;;;2.37;;
32790;SDS011;19143;59.322;14.502;2023-08-06T00:55:44;3.57;;;2.07;;
32790;SDS011;19143;59.322;14.502;2023-08-06T00:58:11;1.97;;;1.80;;
32790;SDS011;19143;59.322;14.502;2023-08-06T01:00:38;4.63;;;1.70;;
32790;SDS011;19143;59.322;14.502;2023-08-06T01:03:07;2.40;;;2.07;;
32790;SDS011;19143;59.322;14.502;2023-08-06T01:05:33;5.77;;;2.20;;
32790;SDS011;19143;59.322;14.502;2023-08-06T01:08:05;3.70;;;2.20;;
32790;SDS011;19143;59.322;14.502;2023-08-06T01:10:38;2.20;;;2.10;;
32790;SDS011;19143;59.322;14.502;2023-08-06T01:13:08;8.80;;;2.50;;
32790;SDS011;19143;59.322;14.502;2023-08-06T01:15:39;2.33;;;2.23;;
32790;SDS011;19143;59.322;14.502;2023-08-06T01:18:09;7.53;;;2.40;;
32790;SDS011;19143;59.322;14.502;2023-08-06T01:20:38;2.20;;;2.07;;
32790;SDS011;19143;59.322;14.502;2023-08-06T01:23:04;2.70;;;2.10;;
32790;SDS011;19143;59.322;14.502;2023-08-06T01:25:33;4.47;;;2.43;;
32790;SDS011;19143;59.322;14.502;2023-08-06T01:28:01;2.73;;;2.20;;
32790;SDS011;19143;59.322;14.502;2023-08-06T01:30:30;11.50;;;2.60;;
32790;SDS011;19143;59.322;14.502;2023-08-06T01:33:01;4.07;;;2.10;;
32790;SDS011;19143;59.322;14.502;2023-08-06T01:35:30;7.90;;;2.00;;
32790;SDS011;19143;59.322;14.502;2023-08-06T01:37:59;2.33;;;2.20;;
32790;SDS011;19143;59.322;14.502;2023-08-06T01:40:26;1.90;;;1.80;;
32790;SDS011;19143;59.322;14.502;2023-08-06T01:42:54;5.03;;;1.97;;
32790;SDS011;19143;59.322;14.502;2023-08-06T01:45:21;3.43;;;1.90;;
32790;SDS011;19143;59.322;14.502;2023-08-06T01:47:48;9.33;;;2.20;;
32790;SDS011;19143;59.322;14.502;2023-08-06T01:50:15;2.03;;;1.87;;
32790;SDS011;19143;59.322;14.502;2023-08-06T01:52:41;12.17;;;2.03;;
32790;SDS011;19143;59.322;14.502;2023-08-06T01:55:09;5.47;;;2.47;;
32790;SDS011;19143;59.322;14.502;2023-08-06T01:57:36;5.33;;;2.27;;
32790;SDS011;19143;59.322;14.502;2023-08-06T02:00:03;1.87;;;1.77;;
32790;SDS011;19143;59.322;14.502;2023-08-06T02:02:29;2.13;;;1.73;;
32790;SDS011;19143;59.322;14.502;2023-08-06T02:04:56;1.83;;;1.73;;
32790;SDS011;19143;59.322;14.502;2023-08-06T02:07:23;2.00;;;1.90;;
32790;SDS011;19143;59.322;14.502;2023-08-06T02:09:49;6.03;;;2.00;;
32790;SDS011;19143;59.322;14.502;2023-08-06T02:12:17;3.07;;;1.73;;
32790;SDS011;19143;59.322;14.502;2023-08-06T02:14:44;4.10;;;2.10;;
32790;SDS011;19143;59.322;14.502;2023-08-06T02:17:11;5.63;;;2.00;;
32790;SDS011;19143;59.322;14.502;2023-08-06T02:19:37;7.03;;;2.13;;
32790;SDS011;19143;59.322;14.502;2023-08-06T02:22:04;2.87;;;2.00;;
32790;SDS011;19143;59.322;14.502;2023-08-06T02:24:31;2.60;;;2.17;;
32790;SDS011;19143;59.322;14.502;2023-08-06T02:26:57;3.50;;;2.03;;
32790;SDS011;19143;59.322;14.502;2023-08-06T02:29:25;7.20;;;2.53;;
32790;SDS011;19143;59.322;14.502;2023-08-06T02:31:52;1.93;;;1.83;;
32790;SDS011;19143;59.322;14.502;2023-08-06T02:34:19;2.80;;;2.23;;
32790;SDS011;19143;59.322;14.502;2023-08-06T02:36:45;3.13;;;1.93;;
32790;SDS011;19143;59.322;14.502;2023-08-06T02:39:12;5.23;;;2.20;;
32790;SDS011;19143;59.322;14.502;2023-08-06T02:41:38;2.23;;;2.13;;
32790;SDS011;19143;59.322;14.502;2023-08-06T02:44:05;4.57;;;2.13;;
32790;SDS011;19143;59.322;14.502;2023-08-06T02:46:33;2.57;;;2.37;;
32790;SDS011;19143;59.322;14.502;2023-08-06T02:48:59;2.20;;;2.10;;
32790;SDS011;19143;59.322;14.502;2023-08-06T02:51:26;5.97;;;2.30;;
32790;SDS011;19143;59.322;14.502;2023-08-06T02:53:52;4.20;;;2.03;;
32790;SDS011;19143;59.322;14.502;2023-08-06T02:56:18;5.37;;;2.17;;
32790;SDS011;19143;59.322;14.502;2023-08-06T02:58:51;2.33;;;1.97;;
32790;SDS011;19143;59.322;14.502;2023-08-06T03:01:17;4.97;;;2.00;;
32790;SDS011;19143;59.322;14.502;2023-08-06T03:03:45;6.77;;;2.33;;
32790;SDS011;19143;59.322;14.502;2023-08-06T03:06:12;1.73;;;1.63;;
32790;SDS011;19143;59.322;14.502;2023-08-06T03:08:38;3.63;;;2.00;;
32790;SDS011;19143;59.322;14.502;2023-08-06T03:11:05;3.80;;;1.87;;
32790;SDS011;19143;59.322;14.502;2023-08-06T03:13:32;3.80;;;2.17;;
32790;SDS011;19143;59.322;14.502;2023-08-06T03:15:59;2.00;;;1.90;;
32790;SDS011;19143;59.322;14.502;2023-08-06T03:18:26;2.70;;;2.10;;
32790;SDS011;19143;59.322;14.502;2023-08-06T03:20:54;2.47;;;2.10;;
32790;SDS011;19143;59.322;14.502;2023-08-06T03:23:22;4.03;;;2.10;;
32790;SDS011;19143;59.322;14.502;2023-08-06T03:25:48;1.90;;;1.80;;
32790;SDS011;19143;59.322;14.502;2023-08-06T03:28:15;5.57;;;2.00;;
32790;SDS011;19143;59.322;14.502;2023-08-06T03:30:42;2.67;;;2.03;;
32790;SDS011;19143;59.322;14.502;2023-08-06T03:33:08;2.23;;;1.90;;
32790;SDS011;19143;59.322;14.502;2023-08-06T03:35:35;4.73;;;2.10;;
32790;SDS011;19143;59.322;14.502;2023-08-06T03:38:03;2.60;;;2.03;;
32790;SDS011;19143;59.322;14.502;2023-08-06T03:40:29;4.03;;;1.70;;
32790;SDS011;19143;59.322;14.502;2023-08-06T03:42:56;1.70;;;1.70;;
32790;SDS011;19143;59.322;14.502;2023-08-06T03:45:23;3.80;;;1.60;;
32790;SDS011;19143;59.322;14.502;2023-08-06T03:47:49;4.40;;;2.20;;
32790;SDS011;19143;59.322;14.502;2023-08-06T03:50:16;1.73;;;1.73;;
32790;SDS011;19143;59.322;14.502;2023-08-06T03:52:43;1.77;;;1.77;;
32790;SDS011;19143;59.322;14.502;2023-08-06T03:55:11;1.93;;;1.90;;
32790;SDS011;19143;59.322;14.502;2023-08-06T03:57:38;6.87;;;2.00;;
32790;SDS011;19143;59.322;14.502;2023-08-06T04:00:05;2.33;;;2.03;;
32790;SDS011;19143;59.322;14.502;2023-08-06T04:02:32;5.93;;;2.20;;
32790;SDS011;19143;59.322;14.502;2023-08-06T04:04:58;6.00;;;2.23;;
32790;SDS011;19143;59.322;14.502;2023-08-06T04:07:25;4.10;;;2.23;;
32790;SDS011;19143;59.322;14.502;2023-08-06T04:09:52;7.27;;;2.17;;
32790;SDS011;19143;59.322;14.502;2023-08-06T04:12:20;3.67;;;2.27;;
32790;SDS011;19143;59.322;14.502;2023-08-06T04:14:47;9.77;;;2.97;;
32790;SDS011;19143;59.322;14.502;2023-08-06T04:17:13;3.93;;;2.83;;
32790;SDS011;19143;59.322;14.502;2023-08-06T04:19:40;4.17;;;2.50;;
32790;SDS011;19143;59.322;14.502;2023-08-06T04:22:07;5.17;;;3.00;;
32790;SDS011;19143;59.322;14.502;2023-08-06T04:24:33;4.27;;;2.53;;
32790;SDS011;19143;59.322;14.502;2023-08-06T04:27:00;4.67;;;2.83;;
32790;SDS011;19143;59.322;14.502;2023-08-06T04:29:28;6.37;;;3.20;;
32790;SDS011;19143;59.322;14.502;2023-08-06T04:31:54;8.33;;;3.10;;
32790;SDS011;19143;59.322;14.502;2023-08-06T04:34:21;4.17;;;2.93;;
32790;SDS011;19143;59.322;14.502;2023-08-06T04:36:48;3.70;;;2.70;;
32790;SDS011;19143;59.322;14.502;2023-08-06T04:39:15;5.37;;;3.23;;
32790;SDS011;19143;59.322;14.502;2023-08-06T04:41:41;9.87;;;2.90;;
32790;SDS011;19143;59.322;14.502;2023-08-06T04:44:08;12.03;;;2.53;;
32790;SDS011;19143;59.322;14.502;2023-08-06T04:46:36;3.03;;;2.50;;
32790;SDS011;19143;59.322;14.502;2023-08-06T04:49:02;3.37;;;2.53;;
32790;SDS011;19143;59.322;14.502;2023-08-06T04:51:29;2.80;;;2.30;;
32790;SDS011;19143;59.322;14.502;2023-08-06T04:53:56;3.00;;;2.60;;
32790;SDS011;19143;59.322;14.502;2023-08-06T04:56:23;2.63;;;2.43;;
32790;SDS011;19143;59.322;14.502;2023-08-06T04:58:49;7.23;;;2.73;;
32790;SDS011;19143;59.322;14.502;2023-08-06T05:01:16;2.80;;;2.60;;
32790;SDS011;19143;59.322;14.502;2023-08-06T05:03:44;4.30;;;2.70;;
32790;SDS011;19143;59.322;14.502;2023-08-06T05:06:10;2.50;;;2.40;;
32790;SDS011;19143;59.322;14.502;2023-08-06T05:08:37;3.00;;;2.20;;
32790;SDS011;19143;59.322;14.502;2023-08-06T05:11:04;8.67;;;3.50;;
32790;SDS011;19143;59.322;14.502;2023-08-06T05:13:30;7.40;;;2.70;;
32790;SDS011;19143;59.322;14.502;2023-08-06T05:15:57;3.00;;;2.80;;
32790;SDS011;19143;59.322;14.502;2023-08-06T05:18:23;2.43;;;2.33;;
32790;SDS011;19143;59.322;14.502;2023-08-06T05:20:51;4.10;;;1.93;;
32790;SDS011;19143;59.322;14.502;2023-08-06T05:23:18;2.07;;;1.97;;
32790;SDS011;19143;59.322;14.502;2023-08-06T05:25:44;9.10;;;2.47;;
32790;SDS011;19143;59.322;14.502;2023-08-06T05:28:11;4.60;;;2.03;;
32790;SDS011;19143;59.322;14.502;2023-08-06T05:30:39;4.77;;;2.10;;
32790;SDS011;19143;59.322;14.502;2023-08-06T05:33:05;2.17;;;1.97;;
32790;SDS011;19143;59.322;14.502;2023-08-06T05:35:32;2.70;;;2.03;;
32790;SDS011;19143;59.322;14.502;2023-08-06T05:38:00;3.90;;;2.30;;
32790;SDS011;19143;59.322;14.502;2023-08-06T05:40:26;2.33;;;2.23;;
32790;SDS011;19143;59.322;14.502;2023-08-06T05:42:53;6.93;;;2.03;;
32790;SDS011;19143;59.322;14.502;2023-08-06T05:45:20;4.87;;;1.93;;
32790;SDS011;19143;59.322;14.502;2023-08-06T05:47:47;5.73;;;2.40;;
32790;SDS011;19143;59.322;14.502;2023-08-06T05:50:14;6.93;;;2.57;;
32790;SDS011;19143;59.322;14.502;2023-08-06T05:52:41;2.77;;;2.10;;
32790;SDS011;19143;59.322;14.502;2023-08-06T05:55:09;2.90;;;2.20;;
32790;SDS011;19143;59.322;14.502;2023-08-06T05:57:35;2.40;;;1.90;;
32790;SDS011;19143;59.322;14.502;2023-08-06T06:00:02;4.53;;;2.63;;
32790;SDS011;19143;59.322;14.502;2023-08-06T06:02:31;3.70;;;2.70;;
32790;SDS011;19143;59.322;14.502;2023-08-06T06:04:57;2.30;;;2.20;;
32790;SDS011;19143;59.322;14.502;2023-08-06T06:07:24;5.27;;;2.47;;
32790;SDS011;19143;59.322;14.502;2023-08-06T06:09:50;2.17;;;1.93;;
32790;SDS011;19143;59.322;14.502;2023-08-06T06:12:19;2.83;;;2.00;;
32790;SDS011;19143;59.322;14.502;2023-08-06T06:14:47;1.77;;;1.77;;
32790;SDS011;19143;59.322;14.502;2023-08-06T06:17:14;6.07;;;2.13;;
32790;SDS011;19143;59.322;14.502;2023-08-06T06:19:40;2.37;;;1.87;;
32790;SDS011;19143;59.322;14.502;2023-08-06T06:22:07;7.70;;;2.10;;
32790;SDS011;19143;59.322;14.502;2023-08-06T06:24:34;6.93;;;2.00;;
32790;SDS011;19143;59.322;14.502;2023-08-06T06:27:00;2.87;;;2.10;;
32790;SDS011;19143;59.322;14.502;2023-08-06T06:31:53;4.83;;;2.13;;
32790;SDS011;19143;59.322;14.502;2023-08-06T06:34:20;10.60;;;2.00;;
32790;SDS011;19143;59.322;14.502;2023-08-06T06:36:47;5.27;;;1.87;;
32790;SDS011;19143;59.322;14.502;2023-08-06T06:39:13;1.77;;;1.67;;
32790;SDS011;19143;59.322;14.502;2023-08-06T06:41:40;3.80;;;1.80;;
32790;SDS011;19143;59.322;14.502;2023-08-06T06:44:09;7.30;;;2.00;;
32790;SDS011;19143;59.322;14.502;2023-08-06T06:46:36;1.67;;;1.57;;
32790;SDS011;19143;59.322;14.502;2023-08-06T06:49:04;1.80;;;1.70;;
32790;SDS011;19143;59.322;14.502;2023-08-06T06:51:30;3.47;;;1.80;;
32790;SDS011;19143;59.322;14.502;2023-08-06T06:53:58;3.90;;;1.40;;
32790;SDS011;19143;59.322;14.502;2023-08-06T06:56:25;3.60;;;1.67;;
32790;SDS011;19143;59.322;14.502;2023-08-06T06:58:51;2.20;;;1.47;;
32790;SDS011;19143;59.322;14.502;2023-08-06T07:01:18;2.20;;;1.53;;
32790;SDS011;19143;59.322;14.502;2023-08-06T07:03:44;1.70;;;1.57;;
32790;SDS011;19143;59.322;14.502;2023-08-06T07:06:12;5.10;;;1.80;;
32790;SDS011;19143;59.322;14.502;2023-08-06T07:08:40;1.80;;;1.60;;
32790;SDS011;19143;59.322;14.502;2023-08-06T07:11:07;4.03;;;1.77;;
32790;SDS011;19143;59.322;14.502;2023-08-06T07:13:34;3.00;;;1.67;;
32790;SDS011;19143;59.322;14.502;2023-08-06T07:16:01;2.77;;;1.77;;
32790;SDS011;19143;59.322;14.502;2023-08-06T07:18:27;2.47;;;1.57;;
32790;SDS011;19143;59.322;14.502;2023-08-06T07:20:54;2.80;;;1.50;;
32790;SDS011;19143;59.322;14.502;2023-08-06T07:23:23;3.13;;;1.63;;
32790;SDS011;19143;59.322;14.502;2023-08-06T07:25:49;5.40;;;1.53;;
32790;SDS011;19143;59.322;14.502;2023-08-06T07:28:16;2.17;;;1.37;;
32790;SDS011;19143;59.322;14.502;2023-08-06T07:30:43;2.83;;;1.50;;
32790;SDS011;19143;59.322;14.502;2023-08-06T07:33:10;2.37;;;1.47;;
32790;SDS011;19143;59.322;14.502;2023-08-06T07:35:37;2.93;;;1.50;;
32790;SDS011;19143;59.322;14.502;2023-08-06T07:38:04;2.03;;;1.60;;
32790;SDS011;19143;59.322;14.502;2023-08-06T07:40:32;6.63;;;1.50;;
32790;SDS011;19143;59.322;14.502;2023-08-06T07:42:58;4.37;;;1.70;;
32790;SDS011;19143;59.322;14.502;2023-08-06T07:45:25;4.23;;;1.50;;
32790;SDS011;19143;59.322;14.502;2023-08-06T07:47:53;4.80;;;1.57;;
32790;SDS011;19143;59.322;14.502;2023-08-06T07:50:19;3.37;;;1.57;;
32790;SDS011;19143;59.322;14.502;2023-08-06T07:52:46;4.00;;;1.50;;
32790;SDS011;19143;59.322;14.502;2023-08-06T07:55:13;1.37;;;1.37;;
32790;SDS011;19143;59.322;14.502;2023-08-06T07:57:42;7.87;;;1.50;;
32790;SDS011;19143;59.322;14.502;2023-08-06T08:00:09;2.27;;;1.60;;
32790;SDS011;19143;59.322;14.502;2023-08-06T08:02:35;1.77;;;1.40;;
32790;SDS011;19143;59.322;14.502;2023-08-06T08:05:02;1.60;;;1.40;;
32790;SDS011;19143;59.322;14.502;2023-08-06T08:07:29;1.23;;;1.13;;
32790;SDS011;19143;59.322;14.502;2023-08-06T08:09:56;7.33;;;1.60;;
32790;SDS011;19143;59.322;14.502;2023-08-06T08:12:22;2.87;;;1.67;;
32790;SDS011;19143;59.322;14.502;2023-08-06T08:14:51;1.60;;;1.50;;
32790;SDS011;19143;59.322;14.502;2023-08-06T08:17:18;1.97;;;1.37;;
32790;SDS011;19143;59.322;14.502;2023-08-06T08:19:44;1.90;;;1.40;;
32790;SDS011;19143;59.322;14.502;2023-08-06T08:22:11;1.57;;;1.47;;
32790;SDS011;19143;59.322;14.502;2023-08-06T08:24:38;1.40;;;1.30;;
32790;SDS011;19143;59.322;14.502;2023-08-06T08:27:04;1.43;;;1.33;;
32790;SDS011;19143;59.322;14.502;2023-08-06T08:29:31;2.43;;;1.50;;
32790;SDS011;19143;59.322;14.502;2023-08-06T08:31:59;1.50;;;1.50;;
32790;SDS011;19143;59.322;14.502;2023-08-06T08:34:28;5.43;;;1.50;;
32790;SDS011;19143;59.322;14.502;2023-08-06T08:36:55;1.57;;;1.40;;
32790;SDS011;19143;59.322;14.502;2023-08-06T08:39:22;2.00;;;1.30;;
32790;SDS011;19143;59.322;14.502;2023-08-06T08:41:49;1.90;;;1.43;;
32790;SDS011;19143;59.322;14.502;2023-08-06T08:44:15;4.63;;;1.53;;
32790;SDS011;19143;59.322;14.502;2023-08-06T08:46:42;1.70;;;1.33;;
32790;SDS011;19143;59.322;14.502;2023-08-06T08:49:12;2.47;;;1.63;;
32790;SDS011;19143;59.322;14.502;2023-08-06T08:51:39;4.73;;;1.60;;
32790;SDS011;19143;59.322;14.502;2023-08-06T08:54:06;6.33;;;1.60;;
32790;SDS011;19143;59.322;14.502;2023-08-06T08:56:33;1.93;;;1.53;;
32790;SDS011;19143;59.322;14.502;2023-08-06T08:59:00;3.30;;;1.80;;
32790;SDS011;19143;59.322;14.502;2023-08-06T09:01:27;4.97;;;1.60;;
32790;SDS011;19143;59.322;14.502;2023-08-06T09:03:54;4.40;;;1.53;;
32790;SDS011;19143;59.322;14.502;2023-08-06T09:06:24;3.67;;;1.47;;
32790;SDS011;19143;59.322;14.502;2023-08-06T09:08:54;2.77;;;1.67;;
32790;SDS011;19143;59.322;14.502;2023-08-06T09:11:23;4.10;;;1.70;;
32790;SDS011;19143;59.322;14.502;2023-08-06T09:13:49;4.27;;;1.90;;
32790;SDS011;19143;59.322;14.502;2023-08-06T09:16:16;2.23;;;1.67;;
32790;SDS011;19143;59.322;14.502;2023-08-06T09:18:43;10.40;;;2.00;;
32790;SDS011;19143;59.322;14.502;2023-08-06T09:21:13;6.27;;;2.10;;
32790;SDS011;19143;59.322;14.502;2023-08-06T09:23:41;4.63;;;1.70;;
32790;SDS011;19143;59.322;14.502;2023-08-06T09:26:10;1.30;;;1.30;;
32790;SDS011;19143;59.322;14.502;2023-08-06T09:28:37;5.10;;;1.80;;
32790;SDS011;19143;59.322;14.502;2023-08-06T09:31:06;3.83;;;1.50;;
32790;SDS011;19143;59.322;14.502;2023-08-06T09:33:33;4.57;;;1.73;;
32790;SDS011;19143;59.322;14.502;2023-08-06T09:36:06;2.53;;;1.43;;
32790;SDS011;19143;59.322;14.502;2023-08-06T09:38:37;1.67;;;1.57;;
32790;SDS011;19143;59.322;14.502;2023-08-06T09:41:06;3.03;;;1.87;;
32790;SDS011;19143;59.322;14.502;2023-08-06T09:43:39;4.77;;;1.97;;
32790;SDS011;19143;59.322;14.502;2023-08-06T09:46:10;6.77;;;1.70;;
32790;SDS011;19143;59.322;14.502;2023-08-06T09:48:36;2.23;;;1.60;;
32790;SDS011;19143;59.322;14.502;2023-08-06T09:51:03;1.80;;;1.70;;
32790;SDS011;19143;59.322;14.502;2023-08-06T09:53:30;7.60;;;2.07;;
32790;SDS011;19143;59.322;14.502;2023-08-06T09:55:59;1.90;;;1.80;;
32790;SDS011;19143;59.322;14.502;2023-08-06T09:58:30;3.83;;;2.10;;
32790;SDS011;19143;59.322;14.502;2023-08-06T10:00:57;2.23;;;2.00;;
32790;SDS011;19143;59.322;14.502;2023-08-06T10:03:24;3.63;;;2.00;;
32790;SDS011;19143;59.322;14.502;2023-08-06T10:05:51;1.70;;;1.60;;
32790;SDS011;19143;59.322;14.502;2023-08-06T10:08:18;2.20;;;2.00;;
32790;SDS011;19143;59.322;14.502;2023-08-06T10:10:44;2.60;;;1.83;;
32790;SDS011;19143;59.322;14.502;2023-08-06T10:13:11;2.60;;;1.90;;
32790;SDS011;19143;59.322;14.502;2023-08-06T10:15:41;6.67;;;1.87;;
32790;SDS011;19143;59.322;14.502;2023-08-06T10:18:07;2.63;;;1.77;;
32790;SDS011;19143;59.322;14.502;2023-08-06T10:20:34;1.93;;;1.83;;
32790;SDS011;19143;59.322;14.502;2023-08-06T10:23:01;2.30;;;1.63;;
32790;SDS011;19143;59.322;14.502;2023-08-06T10:25:30;4.20;;;1.63;;
32790;SDS011;19143;59.322;14.502;2023-08-06T10:27:57;2.30;;;1.93;;
32790;SDS011;19143;59.322;14.502;2023-08-06T10:30:24;5.87;;;1.70;;
32790;SDS011;19143;59.322;14.502;2023-08-06T10:32:53;1.90;;;1.70;;
32790;SDS011;19143;59.322;14.502;2023-08-06T10:35:33;2.83;;;2.03;;
32790;SDS011;19143;59.322;14.502;2023-08-06T10:38:04;3.97;;;2.03;;
32790;SDS011;19143;59.322;14.502;2023-08-06T10:40:31;2.33;;;2.10;;
32790;SDS011;19143;59.322;14.502;2023-08-06T10:42:59;1.73;;;1.63;;
32790;SDS011;19143;59.322;14.502;2023-08-06T10:45:26;3.57;;;1.80;;
32790;SDS011;19143;59.322;14.502;2023-08-06T10:47:55;3.10;;;1.80;;
32790;SDS011;19143;59.322;14.502;2023-08-06T10:50:22;3.23;;;1.97;;
32790;SDS011;19143;59.322;14.502;2023-08-06T10:52:58;3.97;;;2.00;;
32790;SDS011;19143;59.322;14.502;2023-08-06T10:55:30;6.13;;;1.80;;
32790;SDS011;19143;59.322;14.502;2023-08-06T10:57:57;2.00;;;1.60;;
32790;SDS011;19143;59.322;14.502;2023-08-06T11:00:24;3.20;;;1.80;;
32790;SDS011;19143;59.322;14.502;2023-08-06T11:02:51;1.93;;;1.83;;
32790;SDS011;19143;59.322;14.502;2023-08-06T11:05:19;3.33;;;1.90;;
32790;SDS011;19143;59.322;14.502;2023-08-06T11:07:46;1.67;;;1.50;;
32790;SDS011;19143;59.322;14.502;2023-08-06T11:10:14;1.87;;;1.60;;
32790;SDS011;19143;59.322;14.502;2023-08-06T11:12:41;2.30;;;1.83;;
32790;SDS011;19143;59.322;14.502;2023-08-06T11:15:08;2.60;;;2.10;;
32790;SDS011;19143;59.322;14.502;2023-08-06T11:17:35;2.00;;;1.77;;
32790;SDS011;19143;59.322;14.502;2023-08-06T11:20:08;1.90;;;1.70;;
32790;SDS011;19143;59.322;14.502;2023-08-06T11:22:37;4.17;;;1.80;;
32790;SDS011;19143;59.322;14.502;2023-08-06T11:25:05;1.83;;;1.73;;
32790;SDS011;19143;59.322;14.502;2023-08-06T11:27:31;1.90;;;1.70;;
32790;SDS011;19143;59.322;14.502;2023-08-06T11:29:58;1.53;;;1.43;;
32790;SDS011;19143;59.322;14.502;2023-08-06T11:32:31;6.57;;;2.30;;
32790;SDS011;19143;59.322;14.502;2023-08-06T11:34:58;3.67;;;2.20;;
32790;SDS011;19143;59.322;14.502;2023-08-06T11:37:25;2.47;;;2.23;;
32790;SDS011;19143;59.322;14.502;2023-08-06T11:39:53;1.63;;;1.53;;
32790;SDS011;19143;59.322;14.502;2023-08-06T11:42:21;2.67;;;2.00;;
32790;SDS011;19143;59.322;14.502;2023-08-06T11:44:47;2.97;;;2.00;;
32790;SDS011;19143;59.322;14.502;2023-08-06T11:47:15;1.90;;;1.80;;
32790;SDS011;19143;59.322;14.502;2023-08-06T11:49:42;2.10;;;1.83;;
32790;SDS011;19143;59.322;14.502;2023-08-06T11:52:12;3.07;;;1.87;;
32790;SDS011;19143;59.322;14.502;2023-08-06T11:54:39;3.47;;;1.87;;
32790;SDS011;19143;59.322;14.502;2023-08-06T11:57:07;5.80;;;1.90;;
32790;SDS011;19143;59.322;14.502;2023-08-06T11:59:35;2.27;;;2.07;;
32790;SDS011;19143;59.322;14.502;2023-08-06T12:02:03;2.97;;;1.70;;
32790;SDS011;19143;59.322;14.502;2023-08-06T12:04:30;2.00;;;1.80;;
32790;SDS011;19143;59.322;14.502;2023-08-06T12:07:04;2.00;;;1.77;;
32790;SDS011;19143;59.322;14.502;2023-08-06T12:09:30;6.90;;;1.70;;
32790;SDS011;19143;59.322;14.502;2023-08-06T12:11:57;3.50;;;2.00;;
32790;SDS011;19143;59.322;14.502;2023-08-06T12:14:26;5.37;;;1.87;;
32790;SDS011;19143;59.322;14.502;2023-08-06T12:16:52;1.83;;;1.70;;
32790;SDS011;19143;59.322;14.502;2023-08-06T12:19:19;2.00;;;1.80;;
32790;SDS011;19143;59.322;14.502;2023-08-06T12:21:45;1.70;;;1.60;;
32790;SDS011;19143;59.322;14.502;2023-08-06T12:24:12;4.40;;;1.90;;
32790;SDS011;19143;59.322;14.502;2023-08-06T12:26:39;1.60;;;1.50;;
32790;SDS011;19143;59.322;14.502;2023-08-06T12:29:06;1.80;;;1.70;;
32790;SDS011;19143;59.322;14.502;2023-08-06T12:31:34;4.43;;;1.67;;
32790;SDS011;19143;59.322;14.502;2023-08-06T12:34:00;1.50;;;1.50;;
32790;SDS011;19143;59.322;14.502;2023-08-06T12:36:27;16.50;;;1.77;;
32790;SDS011;19143;59.322;14.502;2023-08-06T12:38:53;5.07;;;1.57;;
32790;SDS011;19143;59.322;14.502;2023-08-06T12:41:20;5.40;;;1.70;;
32790;SDS011;19143;59.322;14.502;2023-08-06T12:43:49;2.57;;;1.80;;
32790;SDS011;19143;59.322;14.502;2023-08-06T12:46:16;4.90;;;1.90;;
32790;SDS011;19143;59.322;14.502;2023-08-06T12:48:46;1.60;;;1.50;;
32790;SDS011;19143;59.322;14.502;2023-08-06T12:51:13;2.23;;;1.70;;
32790;SDS011;19143;59.322;14.502;2023-08-06T12:53:40;2.33;;;2.07;;
32790;SDS011;19143;59.322;14.502;2023-08-06T12:56:06;3.23;;;1.97;;
32790;SDS011;19143;59.322;14.502;2023-08-06T12:58:33;2.90;;;2.37;;
32790;SDS011;19143;59.322;14.502;2023-08-06T13:01:00;5.33;;;1.90;;
32790;SDS011;19143;59.322;14.502;2023-08-06T13:03:26;3.90;;;2.10;;
32790;SDS011;19143;59.322;14.502;2023-08-06T13:05:54;1.67;;;1.60;;
32790;SDS011;19143;59.322;14.502;2023-08-06T13:08:21;2.07;;;1.97;;
32790;SDS011;19143;59.322;14.502;2023-08-06T13:10:47;2.30;;;2.10;;
32790;SDS011;19143;59.322;14.502;2023-08-06T13:13:14;3.10;;;2.20;;
32790;SDS011;19143;59.322;14.502;2023-08-06T13:15:40;3.80;;;2.20;;
32790;SDS011;19143;59.322;14.502;2023-08-06T13:18:07;2.00;;;1.90;;
32790;SDS011;19143;59.322;14.502;2023-08-06T13:20:34;3.03;;;2.00;;
32790;SDS011;19143;59.322;14.502;2023-08-06T13:23:02;2.03;;;1.87;;
32790;SDS011;19143;59.322;14.502;2023-08-06T13:25:28;2.10;;;2.00;;
32790;SDS011;19143;59.322;14.502;2023-08-06T13:27:55;2.37;;;1.70;;
32790;SDS011;19143;59.322;14.502;2023-08-06T13:30:22;1.93;;;1.83;;
32790;SDS011;19143;59.322;14.502;2023-08-06T13:32:49;2.20;;;2.00;;
32790;SDS011;19143;59.322;14.502;2023-08-06T13:35:22;3.40;;;1.90;;
32790;SDS011;19143;59.322;14.502;2023-08-06T13:37:49;2.30;;;2.20;;
32790;SDS011;19143;59.322;14.502;2023-08-06T13:40:17;2.30;;;2.00;;
32790;SDS011;19143;59.322;14.502;2023-08-06T13:42:44;3.33;;;1.83;;
32790;SDS011;19143;59.322;14.502;2023-08-06T13:45:10;1.73;;;1.70;;
32790;SDS011;19143;59.322;14.502;2023-08-06T13:47:37;2.27;;;1.97;;
32790;SDS011;19143;59.322;14.502;2023-08-06T13:50:04;3.20;;;2.10;;
32790;SDS011;19143;59.322;14.502;2023-08-06T13:52:31;2.20;;;2.00;;
32790;SDS011;19143;59.322;14.502;2023-08-06T13:54:57;4.33;;;1.87;;
32790;SDS011;19143;59.322;14.502;2023-08-06T13:57:25;2.07;;;1.97;;
32790;SDS011;19143;59.322;14.502;2023-08-06T13:59:52;1.80;;;1.80;;
32790;SDS011;19143;59.322;14.502;2023-08-06T14:02:19;2.00;;;1.83;;
32790;SDS011;19143;59.322;14.502;2023-08-06T14:04:45;3.10;;;2.17;;
32790;SDS011;19143;59.322;14.502;2023-08-06T14:07:12;3.80;;;2.00;;
32790;SDS011;19143;59.322;14.502;2023-08-06T14:09:39;2.07;;;1.87;;
32790;SDS011;19143;59.322;14.502;2023-08-06T14:12:07;2.47;;;2.10;;
32790;SDS011;19143;59.322;14.502;2023-08-06T14:14:35;3.23;;;2.00;;
32790;SDS011;19143;59.322;14.502;2023-08-06T14:17:03;3.37;;;2.20;;
32790;SDS011;19143;59.322;14.502;2023-08-06T14:19:29;2.23;;;2.03;;
32790;SDS011;19143;59.322;14.502;2023-08-06T14:21:56;3.43;;;2.20;;
32790;SDS011;19143;59.322;14.502;2023-08-06T14:24:23;3.17;;;2.30;;
32790;SDS011;19143;59.322;14.502;2023-08-06T14:26:49;2.40;;;2.20;;
32790;SDS011;19143;59.322;14.502;2023-08-06T14:29:16;2.07;;;1.90;;
32790;SDS011;19143;59.322;14.502;2023-08-06T14:31:44;3.13;;;2.20;;
32790;SDS011;19143;59.322;14.502;2023-08-06T14:34:11;9.70;;;2.40;;
32790;SDS011;19143;59.322;14.502;2023-08-06T14:36:38;6.27;;;2.20;;